Time;durP1;ratioP1;P1;durP2;ratioP2;P2;SDS_P1;SDS_P2;PMS_P1;PMS_P2;Temp;Humidity;BMP_temperature;BMP_pressure;BME280_temperature;BME280_humidity;BME280_pressure;Samples;Min_cycle;Max_cycle;Signal;HPM_P1;HPM_P2
2022/04/05 00:00:59;;;;;;;9.27;8.10;;;;;;;8.94;44.82;96895.22;5113860;28;20181;-68
2022/04/05 00:03:24;;;;;;;13.70;8.30;;;;;;;8.82;45.02;96889.41;5113641;27;20246;-68
2022/04/05 00:05:49;;;;;;;12.30;8.90;;;;;;;9.07;44.56;96891.25;5112594;28;20577;-69
2022/04/05 00:08:16;;;;;;;10.53;8.97;;;;;;;9.14;44.05;96881.00;5113247;28;20252;-69
2022/04/05 00:10:42;;;;;;;10.67;8.57;;;;;;;9.03;44.91;96868.16;5104941;28;20181;-70
2022/04/05 00:13:08;;;;;;;10.43;9.07;;;;;;;8.94;44.81;96882.16;5114311;27;20509;-69
2022/04/05 00:15:34;;;;;;;8.57;7.67;;;;;;;8.83;44.80;96880.56;5113282;28;20561;-69
2022/04/05 00:18:00;;;;;;;13.60;8.07;;;;;;;8.67;45.23;96907.38;5113436;28;20681;-68
2022/04/05 00:20:27;;;;;;;10.37;9.00;;;;;;;8.95;44.47;96878.56;5112593;28;20441;-70
2022/04/05 00:22:53;;;;;;;8.93;8.03;;;;;;;9.05;44.65;96874.91;5098229;28;20202;-69
2022/04/05 00:25:18;;;;;;;14.80;9.00;;;;;;;8.91;44.84;96864.97;5109952;28;20421;-69
2022/04/05 00:27:45;;;;;;;11.33;8.40;;;;;;;9.05;44.72;96874.91;5112629;28;20439;-69
2022/04/05 00:30:11;;;;;;;11.00;8.07;;;;;;;8.92;45.07;96874.47;5095350;28;20185;-70
2022/04/05 00:32:37;;;;;;;9.90;8.60;;;;;;;8.79;45.38;96890.50;5111870;28;20422;-69
2022/04/05 00:35:03;;;;;;;10.93;8.03;;;;;;;8.97;44.98;96885.28;5115475;27;20994;-70
2022/04/05 00:37:29;;;;;;;11.00;8.20;;;;;;;8.95;45.24;96879.38;5112469;28;20216;-69
2022/04/05 00:39:54;;;;;;;12.50;9.07;;;;;;;8.99;45.24;96890.38;5112639;28;20929;-70
2022/04/05 00:42:20;;;;;;;13.00;8.50;;;;;;;8.99;44.89;96901.63;5119248;27;20199;-69
2022/04/05 00:44:45;;;;;;;12.83;8.67;;;;;;;8.83;45.57;96896.25;5112760;28;20245;-70
2022/04/05 00:47:19;;;;;;;9.80;8.43;;;;;;;8.99;45.31;96904.25;5112666;28;20201;-68
2022/04/05 00:49:46;;;;;;;9.83;8.73;;;;;;;9.05;45.07;96906.28;5104301;28;20181;-70
2022/04/05 00:52:17;;;;;;;11.60;8.73;;;;;;;8.98;45.45;96900.00;5112632;28;20434;-70
2022/04/05 00:54:49;;;;;;;13.17;8.40;;;;;;;8.93;44.93;96901.41;5104332;28;20786;-69
2022/04/05 00:57:19;;;;;;;11.10;8.13;;;;;;;8.90;45.13;96902.53;5112580;28;20529;-70
2022/04/05 00:59:47;;;;;;;10.00;8.20;;;;;;;8.84;45.29;96895.28;5112782;27;20806;-69
2022/04/05 01:02:16;;;;;;;12.10;8.80;;;;;;;8.85;44.95;96889.94;5112180;28;20585;-69
2022/04/05 01:04:42;;;;;;;11.17;8.60;;;;;;;8.84;45.27;96884.81;5090685;28;20415;-69
2022/04/05 01:07:14;;;;;;;14.27;8.80;;;;;;;8.80;45.02;96888.72;5107768;28;20427;-69
2022/04/05 01:09:40;;;;;;;11.40;8.17;;;;;;;8.97;44.78;96885.28;5111742;28;20849;-69
2022/04/05 01:12:07;;;;;;;10.50;7.70;;;;;;;9.02;44.73;96892.66;5112907;27;20435;-69
2022/04/05 01:14:33;;;;;;;10.33;7.40;;;;;;;8.94;44.86;96877.75;5111958;27;20224;-69
2022/04/05 01:16:58;;;;;;;9.63;8.07;;;;;;;8.70;45.40;96870.50;5111914;28;20459;-69
2022/04/05 01:19:24;;;;;;;9.77;8.53;;;;;;;8.78;45.33;96859.31;5111738;28;20180;-70
2022/04/05 01:21:50;;;;;;;9.80;8.20;;;;;;;8.76;45.86;96864.66;5111901;28;20571;-69
2022/04/05 01:24:15;;;;;;;10.37;8.80;;;;;;;8.62;45.98;96860.78;5112059;28;20189;-69
2022/04/05 01:26:45;;;;;;;12.10;8.70;;;;;;;8.71;46.21;96865.13;5103472;28;20204;-69
2022/04/05 01:29:11;;;;;;;11.37;8.70;;;;;;;8.91;46.38;96870.22;5111697;28;20216;-70
2022/04/05 01:31:47;;;;;;;9.57;8.57;;;;;;;8.98;46.27;96881.69;5111843;28;20544;-69
2022/04/05 01:34:14;;;;;;;10.57;8.23;;;;;;;8.97;47.09;96874.00;5113454;28;20422;-69
2022/04/05 01:36:44;;;;;;;13.03;8.23;;;;;;;8.85;47.27;96863.78;5120968;28;20446;-70
2022/04/05 01:39:11;;;;;;;11.43;8.77;;;;;;;8.67;47.44;96861.19;5117558;28;20423;-70
2022/04/05 01:41:36;;;;;;;10.53;7.90;;;;;;;8.84;47.20;96871.75;5133373;27;20443;-70
2022/04/05 01:44:05;;;;;;;10.57;8.50;;;;;;;8.84;47.37;96861.31;5121933;28;20476;-70
2022/04/05 01:46:31;;;;;;;9.73;8.70;;;;;;;8.70;47.26;96865.28;5126822;27;20208;-70
2022/04/05 01:48:57;;;;;;;10.43;8.20;;;;;;;8.85;46.81;96868.19;5120355;28;20467;-70
2022/04/05 01:51:22;;;;;;;10.30;8.83;;;;;;;9.02;46.69;96850.84;5119663;28;20919;-71
2022/04/05 01:53:48;;;;;;;11.07;7.87;;;;;;;8.91;46.78;96846.69;5124941;27;20177;-70
2022/04/05 01:56:13;;;;;;;12.00;8.57;;;;;;;8.95;46.81;96836.75;5130608;27;20219;-70
2022/04/05 01:58:39;;;;;;;10.87;7.87;;;;;;;8.97;45.91;96840.84;5120505;27;20219;-70
2022/04/05 02:01:04;;;;;;;10.63;8.03;;;;;;;8.90;46.45;96847.66;5111681;28;20181;-70
2022/04/05 02:03:30;;;;;;;8.87;7.67;;;;;;;8.99;46.47;96846.75;5111272;28;20208;-70
2022/04/05 02:05:55;;;;;;;12.00;8.40;;;;;;;8.92;46.34;96840.50;5111336;28;20180;-70
2022/04/05 02:08:21;;;;;;;13.77;9.20;;;;;;;9.01;46.72;96842.19;5093340;28;20192;-71
2022/04/05 02:10:46;;;;;;;17.23;8.80;;;;;;;9.02;46.07;96848.22;5097124;28;20177;-70
2022/04/05 02:13:12;;;;;;;9.30;7.90;;;;;;;8.87;46.70;96847.94;5104553;28;20184;-70
2022/04/05 02:15:37;;;;;;;10.57;7.63;;;;;;;8.99;45.78;96843.31;5075945;28;20177;-70
2022/04/05 02:18:03;;;;;;;10.43;8.20;;;;;;;8.74;47.01;96838.69;5091526;28;20206;-67
2022/04/05 02:20:29;;;;;;;9.60;8.57;;;;;;;8.70;46.82;96833.94;5112406;27;20181;-69
2022/04/05 02:22:54;;;;;;;11.07;8.10;;;;;;;8.73;46.69;96836.25;5111166;28;20205;-69
2022/04/05 02:25:19;;;;;;;13.33;9.30;;;;;;;8.82;47.08;96837.16;5110965;28;20180;-68
2022/04/05 02:27:47;;;;;;;9.87;7.80;;;;;;;8.89;46.52;96817.28;5110999;28;20803;-69
2022/04/05 02:30:13;;;;;;;10.60;8.27;;;;;;;8.93;46.15;96821.22;5112966;28;20181;-69
2022/04/05 02:32:38;;;;;;;10.97;8.03;;;;;;;8.92;46.37;96814.34;5114781;28;20502;-69
2022/04/05 02:35:04;;;;;;;8.67;7.80;;;;;;;8.74;46.59;96823.03;5115200;28;20434;-69
2022/04/05 02:37:30;;;;;;;11.33;8.40;;;;;;;8.86;46.24;96812.34;5114081;27;20220;-68
2022/04/05 02:39:55;;;;;;;10.53;8.10;;;;;;;8.87;46.78;96803.53;5114825;28;20915;-68
2022/04/05 02:42:21;;;;;;;17.03;11.83;;;;;;;8.78;46.58;96809.66;5115368;27;20647;-69
2022/04/05 02:44:46;;;;;;;11.43;9.00;;;;;;;8.83;46.92;96810.00;5115097;28;20192;-69
2022/04/05 02:47:12;;;;;;;9.70;8.07;;;;;;;8.80;47.05;96805.91;5130424;27;20215;-69
2022/04/05 02:49:38;;;;;;;11.63;8.80;;;;;;;8.88;46.45;96799.94;5123400;27;20177;-69
2022/04/05 02:52:04;;;;;;;16.40;8.60;;;;;;;8.92;46.30;96811.75;5115103;28;20779;-68
2022/04/05 02:54:30;;;;;;;10.30;8.40;;;;;;;8.97;46.38;96806.88;5116491;27;20234;-68
2022/04/05 02:56:55;;;;;;;10.13;7.80;;;;;;;8.90;46.06;96809.25;5117779;27;20438;-68
2022/04/05 02:59:21;;;;;;;11.00;8.50;;;;;;;8.88;46.97;96805.97;5114519;28;20471;-68
2022/04/05 03:01:46;;;;;;;8.90;7.90;;;;;;;8.88;47.59;96794.72;5114851;28;20212;-68
2022/04/05 03:04:12;;;;;;;8.53;7.73;;;;;;;8.79;48.00;96811.31;5103352;27;21548;-69
2022/04/05 03:06:37;;;;;;;12.07;8.43;;;;;;;8.85;47.20;96811.53;5121886;27;20261;-69
2022/04/05 03:09:03;;;;;;;11.83;7.50;;;;;;;8.93;47.35;96802.94;5122751;27;20177;-69
2022/04/05 03:11:28;;;;;;;12.20;8.00;;;;;;;8.86;47.38;96809.72;5119997;27;20276;-68
2022/04/05 03:13:54;;;;;;;10.30;8.30;;;;;;;8.63;47.60;96810.19;5114348;28;20185;-68
2022/04/05 03:16:19;;;;;;;10.33;7.97;;;;;;;8.81;47.86;96806.75;5114008;28;20232;-68
2022/04/05 03:18:47;;;;;;;11.50;7.70;;;;;;;9.00;47.43;96808.38;5101237;28;20193;-69
2022/04/05 03:21:14;;;;;;;10.70;8.30;;;;;;;8.89;47.57;96809.44;5114343;28;20181;-70
2022/04/05 03:23:40;;;;;;;12.87;8.43;;;;;;;8.56;48.15;96817.81;5113777;27;20462;-70
2022/04/05 03:26:06;;;;;;;10.30;8.80;;;;;;;8.72;47.81;96811.09;5114758;28;20469;-70
2022/04/05 03:28:31;;;;;;;9.87;8.03;;;;;;;8.67;47.72;96814.16;5113762;28;20917;-70
2022/04/05 03:30:57;;;;;;;10.80;7.93;;;;;;;8.76;48.04;96821.09;5113922;28;20263;-70
2022/04/05 03:33:22;;;;;;;8.60;7.60;;;;;;;8.84;47.55;96804.66;5123078;27;20200;-70
2022/04/05 03:35:48;;;;;;;9.20;7.73;;;;;;;8.85;47.04;96823.75;5122151;27;20174;-70
2022/04/05 03:38:13;;;;;;;10.43;7.60;;;;;;;9.00;47.06;96818.84;5121843;27;20291;-70
2022/04/05 03:40:39;;;;;;;9.67;8.07;;;;;;;9.04;46.71;96826.22;5113342;27;20175;-70
2022/04/05 03:43:07;;;;;;;9.77;8.00;;;;;;;9.05;46.55;96814.78;5114092;28;20197;-70
2022/04/05 03:45:33;;;;;;;9.63;7.90;;;;;;;8.98;46.36;96811.13;5097643;27;20882;-68
2022/04/05 03:47:58;;;;;;;9.00;7.40;;;;;;;8.99;46.44;96812.78;5119282;27;20546;-70
2022/04/05 03:50:24;;;;;;;12.07;7.60;;;;;;;9.12;46.31;96822.00;5112959;28;20423;-70
2022/04/05 03:52:49;;;;;;;9.27;7.70;;;;;;;9.21;45.92;96823.69;5122206;27;20184;-70
2022/04/05 03:55:15;;;;;;;10.93;7.97;;;;;;;9.15;45.78;96813.88;5113061;28;20189;-70
2022/04/05 03:57:40;;;;;;;10.70;7.57;;;;;;;9.17;46.10;96825.00;5121801;27;20215;-70
2022/04/05 04:00:07;;;;;;;10.50;6.57;;;;;;;9.27;45.73;96830.94;5120068;27;20195;-70
2022/04/05 04:02:35;;;;;;;9.30;7.60;;;;;;;9.28;45.47;96834.38;5114167;27;20721;-70
2022/04/05 04:05:00;;;;;;;11.73;8.17;;;;;;;9.09;45.48;96832.75;5114071;27;20440;-70
2022/04/05 04:07:26;;;;;;;9.73;7.57;;;;;;;9.15;45.58;96829.56;5113236;28;20431;-69
2022/04/05 04:09:52;;;;;;;9.50;7.47;;;;;;;9.30;45.25;96816.72;5112880;28;20264;-69
2022/04/05 04:12:17;;;;;;;9.67;6.60;;;;;;;9.31;45.53;96832.28;5113189;27;20176;-71
2022/04/05 04:14:43;;;;;;;9.50;7.37;;;;;;;9.39;45.46;96828.88;5113279;28;20180;-69
2022/04/05 04:17:08;;;;;;;9.93;7.90;;;;;;;9.16;45.93;96828.59;5113114;28;20530;-70
2022/04/05 04:19:34;;;;;;;8.13;7.10;;;;;;;9.20;45.30;96829.91;5112160;28;20173;-70
2022/04/05 04:22:00;;;;;;;11.07;7.80;;;;;;;9.19;46.90;96821.25;5097736;28;20657;-69
2022/04/05 04:24:25;;;;;;;8.83;7.93;;;;;;;9.15;46.24;96825.13;5110994;28;20208;-69
2022/04/05 04:26:50;;;;;;;10.20;7.33;;;;;;;9.26;47.15;96824.06;5116219;28;20505;-70
2022/04/05 04:29:16;;;;;;;10.10;8.17;;;;;;;9.09;47.67;96824.91;5114937;28;20221;-69
2022/04/05 04:31:41;;;;;;;10.80;8.43;;;;;;;9.02;48.10;96817.69;5112000;28;20197;-69
2022/04/05 04:34:07;;;;;;;12.60;8.10;;;;;;;9.02;49.10;96817.69;5118567;27;20207;-70
2022/04/05 04:36:33;;;;;;;10.80;8.50;;;;;;;9.02;48.62;96811.63;5112790;27;20691;-69
2022/04/05 04:38:58;;;;;;;8.83;7.93;;;;;;;9.09;48.98;96807.47;5121289;27;20230;-70
2022/04/05 04:41:24;;;;;;;10.97;8.00;;;;;;;9.03;49.57;96814.13;5112556;28;20181;-68
2022/04/05 04:43:52;;;;;;;11.77;8.17;;;;;;;9.00;49.50;96808.38;5112749;28;20336;-70
2022/04/05 04:46:17;;;;;;;9.57;7.70;;;;;;;9.06;49.45;96807.75;5111877;28;20242;-69
2022/04/05 04:48:43;;;;;;;9.90;8.20;;;;;;;9.13;48.92;96808.81;5104085;28;20427;-70
2022/04/05 04:51:09;;;;;;;9.33;7.93;;;;;;;9.16;49.60;96803.25;5112958;28;20192;-69
2022/04/05 04:53:38;;;;;;;13.33;8.67;;;;;;;8.96;50.32;96797.38;5113406;28;20264;-72
2022/04/05 04:56:04;;;;;;;12.50;8.97;;;;;;;8.89;51.14;96802.38;5112206;28;20429;-69
2022/04/05 04:58:30;;;;;;;9.23;8.30;;;;;;;9.05;50.72;96806.94;5112268;28;20419;-69
2022/04/05 05:00:55;;;;;;;10.63;8.40;;;;;;;9.14;50.19;96807.00;5118002;27;20181;-69
2022/04/05 05:03:21;;;;;;;10.50;8.23;;;;;;;9.06;50.14;96808.59;5111883;27;20489;-68
2022/04/05 05:05:46;;;;;;;10.93;8.10;;;;;;;9.11;50.11;96807.28;5111851;27;20260;-69
2022/04/05 05:08:11;;;;;;;9.80;7.80;;;;;;;9.11;50.33;96809.91;5095223;28;20185;-69
2022/04/05 05:10:37;;;;;;;9.97;7.63;;;;;;;9.12;50.13;96814.16;5111409;28;20180;-70
2022/04/05 05:13:03;;;;;;;10.80;8.17;;;;;;;9.12;50.36;96819.41;5128187;27;20181;-69
2022/04/05 05:15:28;;;;;;;9.67;7.80;;;;;;;8.87;49.37;96832.28;5111974;28;20184;-69
2022/04/05 05:17:55;;;;;;;8.60;7.17;;;;;;;9.06;50.13;96828.66;5112243;28;20204;-70
2022/04/05 05:20:21;;;;;;;10.57;7.47;;;;;;;9.25;49.44;96835.50;5111884;27;20181;-70
2022/04/05 05:22:47;;;;;;;10.57;8.07;;;;;;;9.20;49.72;96835.97;5112433;28;20542;-70
2022/04/05 05:25:13;;;;;;;11.80;8.67;;;;;;;9.05;49.86;96827.84;5128990;27;20529;-70
2022/04/05 05:27:38;;;;;;;13.90;8.13;;;;;;;9.05;50.11;96830.47;5112949;27;20584;-69
2022/04/05 05:30:08;;;;;;;8.53;7.10;;;;;;;8.92;50.38;96835.25;5111729;28;20196;-70
2022/04/05 05:32:41;;;;;;;8.17;7.37;;;;;;;8.86;50.13;96847.16;5111420;28;20181;-70
2022/04/05 05:35:07;;;;;;;12.43;8.13;;;;;;;8.93;50.52;96843.91;5113577;27;20427;-71
2022/04/05 05:37:33;;;;;;;13.80;8.27;;;;;;;8.96;50.12;96836.59;5112115;28;20533;-71
2022/04/05 05:39:58;;;;;;;10.47;7.80;;;;;;;9.02;50.24;96843.00;5112851;28;20506;-71
2022/04/05 05:42:24;;;;;;;11.77;7.67;;;;;;;9.00;49.85;96848.38;5116592;28;20211;-70
2022/04/05 05:44:50;;;;;;;9.97;8.20;;;;;;;9.11;50.36;96856.97;5116657;28;20212;-69
2022/04/05 05:47:15;;;;;;;9.03;8.00;;;;;;;8.88;50.78;96854.81;5125031;27;20811;-69
2022/04/05 05:49:40;;;;;;;11.13;7.93;;;;;;;8.90;50.53;96852.88;5123624;27;20284;-71
2022/04/05 05:52:06;;;;;;;8.70;7.33;;;;;;;8.86;50.84;96856.75;5116032;28;20663;-68
2022/04/05 05:54:31;;;;;;;9.70;8.10;;;;;;;8.96;50.65;96854.88;5113981;28;20184;-69
2022/04/05 05:56:57;;;;;;;14.10;8.20;;;;;;;8.93;50.63;96856.97;5114005;28;20637;-68
2022/04/05 05:59:26;;;;;;;9.73;7.90;;;;;;;9.09;51.01;96862.34;5111489;28;20173;-67
2022/04/05 06:01:51;;;;;;;9.27;8.10;;;;;;;9.03;51.60;96852.50;5111432;28;20284;-69
2022/04/05 06:04:17;;;;;;;13.40;8.10;;;;;;;9.00;51.75;96868.50;5120892;27;20888;-68
2022/04/05 06:06:43;;;;;;;9.57;7.70;;;;;;;9.05;51.85;96867.06;5118701;27;20700;-69
2022/04/05 06:09:08;;;;;;;10.17;7.40;;;;;;;9.10;51.54;96863.16;5111391;28;20257;-69
2022/04/05 06:11:34;;;;;;;9.90;7.13;;;;;;;9.15;52.14;96868.78;5110928;28;20242;-68
2022/04/05 06:13:59;;;;;;;15.40;7.90;;;;;;;9.21;52.01;96868.16;5110799;28;20184;-69
2022/04/05 06:16:25;;;;;;;10.27;8.20;;;;;;;9.23;51.84;96860.97;5110787;28;20280;-69
2022/04/05 06:18:50;;;;;;;10.53;8.00;;;;;;;9.25;51.96;96864.28;5111464;28;20560;-69
2022/04/05 06:21:16;;;;;;;9.00;6.90;;;;;;;9.14;52.63;96867.13;5111324;28;20298;-68
2022/04/05 06:23:42;;;;;;;12.00;8.60;;;;;;;8.93;52.93;96876.13;5102918;28;20204;-70
2022/04/05 06:26:08;;;;;;;11.90;7.53;;;;;;;8.83;52.50;96877.97;5111237;28;20422;-70
2022/04/05 06:28:34;;;;;;;11.27;7.73;;;;;;;8.67;52.82;96882.06;5110993;28;20184;-71
2022/04/05 06:30:59;;;;;;;9.50;7.83;;;;;;;8.87;53.44;96881.94;5110894;28;20260;-70
2022/04/05 06:33:25;;;;;;;9.70;7.73;;;;;;;8.69;52.86;96874.91;5111491;28;21039;-68
2022/04/05 06:35:53;;;;;;;9.60;7.93;;;;;;;8.97;52.51;96884.47;5111832;28;20213;-69
2022/04/05 06:38:19;;;;;;;9.40;7.67;;;;;;;9.02;52.47;96883.03;5111289;28;20611;-69
2022/04/05 06:40:46;;;;;;;11.53;7.73;;;;;;;9.05;53.02;96877.53;5111171;28;20453;-69
2022/04/05 06:43:12;;;;;;;9.17;7.37;;;;;;;9.09;52.29;96883.28;5111403;28;20310;-70
2022/04/05 06:45:38;;;;;;;10.60;8.53;;;;;;;9.03;52.89;96883.84;5109902;28;20427;-69
2022/04/05 06:48:06;;;;;;;9.33;7.83;;;;;;;9.18;52.49;96876.31;5094679;28;20792;-69
2022/04/05 06:50:32;;;;;;;9.20;8.30;;;;;;;9.20;52.91;96876.97;5109356;28;20189;-69
2022/04/05 06:52:58;;;;;;;12.17;8.13;;;;;;;9.14;52.35;96874.97;5110822;28;20419;-69
2022/04/05 06:55:24;;;;;;;9.00;8.07;;;;;;;9.15;53.16;96880.03;5110126;28;20506;-69
2022/04/05 06:57:51;;;;;;;9.27;8.17;;;;;;;9.11;52.71;96877.88;5109749;28;20534;-68
2022/04/05 07:00:22;;;;;;;26.23;7.83;;;;;;;9.43;56.23;96876.50;5112565;28;20431;-70
2022/04/05 07:02:48;;;;;;;9.77;7.77;;;;;;;9.51;53.06;96879.16;5110983;28;20455;-70
2022/04/05 07:05:13;;;;;;;9.40;7.50;;;;;;;9.52;52.88;96875.56;5119676;28;20429;-70
2022/04/05 07:07:39;;;;;;;8.27;7.40;;;;;;;9.47;52.06;96860.34;5110940;27;20689;-70
2022/04/05 07:10:06;;;;;;;10.33;7.40;;;;;;;9.55;51.91;96869.19;5110662;28;20264;-70
2022/04/05 07:12:32;;;;;;;15.20;7.57;;;;;;;9.41;52.27;96867.97;5110541;28;20185;-71
2022/04/05 07:14:58;;;;;;;9.23;7.17;;;;;;;9.33;52.57;96871.34;5113089;28;20472;-69
2022/04/05 07:17:25;;;;;;;9.33;7.33;;;;;;;9.17;52.84;96861.59;5114233;28;20224;-69
2022/04/05 07:19:51;;;;;;;7.73;6.63;;;;;;;9.26;53.30;96855.44;5114533;28;20821;-70
2022/04/05 07:22:17;;;;;;;8.37;7.10;;;;;;;9.45;52.70;96857.06;5114114;28;20484;-69
2022/04/05 07:24:42;;;;;;;8.90;7.60;;;;;;;9.57;51.98;96872.50;5114650;28;20410;-69
2022/04/05 07:27:08;;;;;;;9.70;7.67;;;;;;;9.38;52.87;96869.13;5114124;28;20210;-69
2022/04/05 07:29:33;;;;;;;11.47;7.63;;;;;;;9.49;52.56;96871.47;5114218;28;20189;-70
2022/04/05 07:32:00;;;;;;;10.17;7.50;;;;;;;9.45;52.67;96874.56;5115704;27;20181;-69
2022/04/05 07:34:26;;;;;;;8.63;7.50;;;;;;;9.46;52.76;96863.09;5115091;27;20712;-69
2022/04/05 07:36:51;;;;;;;9.00;7.10;;;;;;;9.48;52.26;96867.22;5113509;28;20438;-69
2022/04/05 07:39:19;;;;;;;8.77;6.63;;;;;;;9.40;52.02;96871.56;5114243;27;20294;-68
2022/04/05 07:41:44;;;;;;;10.80;7.90;;;;;;;9.43;51.85;96866.03;5132707;27;20184;-69
2022/04/05 07:44:42;;;;;;;7.90;6.37;;;;;;;9.52;52.64;96859.88;5120909;27;20550;-69
2022/04/05 07:47:07;;;;;;;9.60;7.00;;;;;;;9.55;52.25;96863.97;5127665;27;20915;-70
2022/04/05 07:49:33;;;;;;;8.13;6.67;;;;;;;9.59;51.84;96866.13;5125628;27;20188;-70
2022/04/05 07:51:58;;;;;;;9.60;6.87;;;;;;;9.72;52.07;96859.66;5124127;27;20184;-70
2022/04/05 07:54:24;;;;;;;8.77;6.90;;;;;;;9.76;52.04;96863.59;5123263;27;20185;-69
2022/04/05 07:56:49;;;;;;;8.00;7.20;;;;;;;9.76;52.18;96856.59;5125837;27;20204;-69
2022/04/05 07:59:15;;;;;;;8.70;6.60;;;;;;;9.88;51.51;96853.69;5130495;27;20217;-71
2022/04/05 08:01:40;;;;;;;11.30;8.50;;;;;;;9.90;52.49;96852.56;5099306;27;20184;-69
2022/04/05 08:04:05;;;;;;;10.90;7.77;;;;;;;9.97;51.72;96848.31;5125772;27;20215;-69
2022/04/05 08:06:31;;;;;;;10.80;7.30;;;;;;;9.94;52.46;96856.50;5117905;27;20227;-70
2022/04/05 08:08:57;;;;;;;7.83;6.93;;;;;;;10.04;51.54;96855.56;5125377;27;20178;-69
2022/04/05 08:11:22;;;;;;;8.77;6.50;;;;;;;10.21;51.44;96857.25;5124406;27;20255;-69
2022/04/05 08:13:48;;;;;;;13.70;6.70;;;;;;;10.19;51.79;96866.25;5124527;27;20181;-69
2022/04/05 08:16:13;;;;;;;10.03;7.30;;;;;;;10.14;52.55;96854.44;5125403;27;20283;-69
2022/04/05 08:18:39;;;;;;;10.07;6.83;;;;;;;10.21;51.76;96869.53;5120664;27;20185;-69
2022/04/05 08:21:04;;;;;;;12.20;5.93;;;;;;;10.37;51.65;96869.59;5121914;27;20304;-69
2022/04/05 08:23:30;;;;;;;10.67;7.20;;;;;;;10.42;51.55;96866.53;5123287;27;20220;-70
2022/04/05 08:25:56;;;;;;;7.57;6.07;;;;;;;10.40;51.31;96873.72;5125357;27;20172;-70
2022/04/05 08:28:21;;;;;;;8.73;6.70;;;;;;;10.46;51.64;96873.06;5123247;27;20180;-69
2022/04/05 08:30:47;;;;;;;9.30;6.77;;;;;;;10.32;51.93;96871.06;5119211;27;20181;-70
2022/04/05 08:33:12;;;;;;;8.03;6.40;;;;;;;10.33;52.02;96877.94;5129618;27;20652;-70
2022/04/05 08:35:39;;;;;;;9.23;6.57;;;;;;;10.38;51.83;96884.38;5125146;27;20168;-67
2022/04/05 08:38:05;;;;;;;10.50;6.77;;;;;;;10.19;52.65;96877.56;5124623;27;20316;-70
2022/04/05 08:40:31;;;;;;;6.77;6.00;;;;;;;10.15;52.54;96881.47;5122743;27;20458;-69
2022/04/05 08:42:57;;;;;;;9.57;6.47;;;;;;;10.50;52.17;96884.88;5121499;27;20482;-70
2022/04/05 08:45:24;;;;;;;11.40;6.90;;;;;;;10.59;52.08;96886.53;5128660;27;20176;-70
2022/04/05 08:47:50;;;;;;;11.13;6.70;;;;;;;10.64;51.99;96890.50;5121469;27;20219;-70
2022/04/05 08:50:19;;;;;;;10.73;6.13;;;;;;;10.71;52.22;96897.56;5120949;27;20425;-71
2022/04/05 08:52:45;;;;;;;8.20;6.37;;;;;;;10.71;52.37;96894.13;5128272;27;20441;-70
2022/04/05 08:55:11;;;;;;;9.90;6.40;;;;;;;10.80;52.61;96894.94;5112915;28;20407;-70
2022/04/05 08:57:37;;;;;;;7.33;6.27;;;;;;;10.91;52.84;96897.25;5124170;27;20434;-70
2022/04/05 09:00:05;;;;;;;8.23;6.50;;;;;;;11.00;52.94;96885.81;5124366;27;20433;-70
2022/04/05 09:02:30;;;;;;;12.03;5.80;;;;;;;11.12;52.95;96882.88;5129508;27;20207;-69
2022/04/05 09:04:56;;;;;;;7.23;5.43;;;;;;;11.24;52.76;96883.34;5120233;27;20887;-70
2022/04/05 09:07:23;;;;;;;7.27;5.77;;;;;;;11.44;52.58;96878.56;5122368;27;20212;-69
2022/04/05 09:10:07;;;;;;;9.50;6.40;;;;;;;11.51;52.09;96877.75;5124167;27;20176;-69
2022/04/05 09:12:47;;;;;;;6.63;5.47;;;;;;;11.61;52.47;96874.13;5124175;27;20779;-71
2022/04/05 09:15:15;;;;;;;7.40;5.67;;;;;;;11.64;51.35;96886.91;5124360;27;20527;-70
2022/04/05 09:17:42;;;;;;;6.70;6.00;;;;;;;11.57;51.12;96880.72;5107313;27;20445;-69
2022/04/05 09:20:08;;;;;;;6.67;4.93;;;;;;;11.71;51.35;96880.03;5131147;27;20792;-70
2022/04/05 09:22:34;;;;;;;7.07;5.07;;;;;;;11.48;51.09;96895.63;5121548;27;20458;-70
2022/04/05 09:25:07;;;;;;;9.00;5.90;;;;;;;11.65;50.92;96880.69;5120761;27;20418;-70
2022/04/05 09:27:53;;;;;;;5.70;4.80;;;;;;;11.75;50.57;96889.19;5120396;27;20196;-70
2022/04/05 09:30:29;;;;;;;6.80;5.60;;;;;;;11.63;50.54;96888.72;5120498;27;20418;-71
2022/04/05 09:32:56;;;;;;;7.77;5.70;;;;;;;11.80;50.62;96896.56;5123822;27;20425;-69
2022/04/05 09:35:27;;;;;;;6.50;5.20;;;;;;;11.77;51.02;96881.97;5115384;27;20966;-69
2022/04/05 09:37:52;;;;;;;7.93;5.77;;;;;;;11.84;50.88;96888.16;5123741;27;20945;-70
2022/04/05 09:40:24;;;;;;;6.40;5.63;;;;;;;11.71;50.62;96892.31;5104635;28;20422;-70
2022/04/05 09:43:07;;;;;;;7.13;5.30;;;;;;;11.80;50.98;96884.25;5115079;27;20264;-70
2022/04/05 09:45:58;;;;;;;7.07;4.93;;;;;;;11.83;51.20;96889.19;5122666;27;20450;-68
2022/04/05 09:48:25;;;;;;;7.53;5.23;;;;;;;11.69;51.31;96889.88;5121317;27;20457;-71
2022/04/05 09:51:12;;;;;;;8.47;5.30;;;;;;;11.76;51.13;96890.81;5113234;27;20819;-70
2022/04/05 09:53:46;;;;;;;9.23;5.63;;;;;;;11.82;50.87;96899.84;5122493;27;20971;-70
2022/04/05 09:56:35;;;;;;;14.20;5.20;;;;;;;11.53;51.20;96901.19;5121393;27;20419;-70
2022/04/05 09:59:04;;;;;;;7.50;5.53;;;;;;;11.60;51.05;96890.84;5106613;27;20577;-69
2022/04/05 10:01:32;;;;;;;7.80;5.60;;;;;;;11.67;50.83;96900.53;5120151;27;20984;-70
2022/04/05 10:04:06;;;;;;;8.60;4.93;;;;;;;11.50;51.33;96896.28;5109556;28;20844;-69
2022/04/05 10:06:33;;;;;;;6.40;5.10;;;;;;;11.42;51.16;96905.00;5122764;27;20496;-69
2022/04/05 10:08:59;;;;;;;6.40;5.40;;;;;;;11.56;51.62;96900.88;5123343;27;21085;-69
2022/04/05 10:11:26;;;;;;;6.57;5.47;;;;;;;11.60;51.45;96911.84;5114900;27;20521;-69
2022/04/05 10:13:53;;;;;;;5.80;5.20;;;;;;;11.53;52.18;96899.41;5118212;27;20414;-69
2022/04/05 10:16:20;;;;;;;8.63;7.03;;;;;;;11.55;51.79;96906.28;5119442;28;20443;-70
2022/04/05 10:18:47;;;;;;;7.03;4.97;;;;;;;11.67;51.92;96904.97;5118217;27;20423;-70
2022/04/05 10:21:13;;;;;;;6.93;4.93;;;;;;;11.79;51.51;96908.88;5108954;28;20417;-70
2022/04/05 10:23:42;;;;;;;7.17;5.10;;;;;;;11.93;51.62;96911.81;5126298;28;20889;-70
2022/04/05 10:26:10;;;;;;;11.33;6.10;;;;;;;11.82;52.36;96908.56;5119018;28;20426;-70
2022/04/05 10:28:36;;;;;;;7.10;5.87;;;;;;;11.86;52.54;96914.28;5119044;28;20426;-69
2022/04/05 10:31:40;;;;;;;6.23;5.50;;;;;;;11.78;53.45;96904.63;5117231;28;20427;-70
2022/04/05 10:34:14;;;;;;;7.37;5.10;;;;;;;11.87;53.61;96902.78;5099938;28;20426;-69
2022/04/05 10:36:42;;;;;;;5.63;5.13;;;;;;;12.03;53.68;96909.84;5122672;27;20922;-71
2022/04/05 10:39:15;;;;;;;7.90;5.33;;;;;;;12.06;53.88;96906.88;5112865;28;20429;-69
2022/04/05 10:41:42;;;;;;;8.60;5.70;;;;;;;11.98;54.42;96902.47;5119161;27;20938;-70
2022/04/05 10:44:16;;;;;;;10.03;5.70;;;;;;;11.89;54.42;96900.00;5124921;28;20429;-69
2022/04/05 10:46:51;;;;;;;6.20;5.33;;;;;;;12.00;54.38;96902.28;5106506;28;20508;-69
2022/04/05 10:49:39;;;;;;;6.57;5.77;;;;;;;12.10;54.81;96907.34;5122563;27;20465;-68
2022/04/05 10:52:30;;;;;;;6.57;5.67;;;;;;;12.00;54.69;96899.66;5123383;27;21031;-69
2022/04/05 10:55:04;;;;;;;7.03;5.07;;;;;;;11.95;54.22;96894.06;5126605;27;20418;-68
2022/04/05 10:57:35;;;;;;;5.70;4.50;;;;;;;12.06;53.63;96892.91;5125059;27;20447;-69
2022/04/05 11:00:00;;;;;;;8.50;5.00;;;;;;;12.14;54.08;96898.97;5120582;27;20419;-71
2022/04/05 11:02:38;;;;;;;6.00;4.97;;;;;;;12.18;54.12;96893.38;5133050;27;20464;-69
2022/04/05 11:05:25;;;;;;;4.97;4.47;;;;;;;12.16;54.36;96893.53;5133223;27;20237;-70
2022/04/05 11:07:53;;;;;;;10.30;4.40;;;;;;;12.21;54.30;96891.22;5112210;27;20454;-71
2022/04/05 11:10:25;;;;;;;4.70;4.30;;;;;;;12.34;54.35;96889.84;5125984;27;20421;-69
2022/04/05 11:13:04;;;;;;;5.70;4.90;;;;;;;12.42;54.01;96900.31;5126207;27;20423;-70
2022/04/05 11:15:46;;;;;;;5.03;4.37;;;;;;;12.42;54.05;96895.06;5126585;27;20462;-69
2022/04/05 11:18:19;;;;;;;4.87;4.37;;;;;;;12.31;53.89;96892.81;5126610;27;20456;-70
2022/04/05 11:20:46;;;;;;;5.70;4.00;;;;;;;12.14;54.47;96904.22;5110930;27;20716;-69
2022/04/05 11:23:13;;;;;;;6.37;4.40;;;;;;;12.41;54.22;96896.88;5126642;27;20462;-69
2022/04/05 11:25:39;;;;;;;5.10;4.03;;;;;;;12.61;54.17;96885.94;5123190;27;20422;-70
2022/04/05 11:28:15;;;;;;;5.10;4.23;;;;;;;12.82;53.66;96884.50;5122875;27;20982;-70
2022/04/05 11:30:47;;;;;;;5.70;4.47;;;;;;;12.94;53.61;96891.00;5117684;27;20302;-69
2022/04/05 11:33:22;;;;;;;6.07;4.60;;;;;;;13.03;53.21;96887.31;5126235;27;20463;-70
2022/04/05 11:36:13;;;;;;;5.23;4.13;;;;;;;12.84;52.45;96887.78;5126467;27;20917;-70
2022/04/05 11:38:40;;;;;;;4.50;4.10;;;;;;;12.99;52.00;96891.28;5125673;27;20846;-70